createdAt,value
2017-04-29T00:01:08.333Z,1008.31
2017-04-29T00:02:08.943Z,1008.32
2017-04-29T00:03:09.526Z,1008.37
2017-04-29T00:04:10.120Z,1008.41
2017-04-29T00:05:10.724Z,1008.44
2017-04-29T00:06:11.321Z,1008.45
2017-04-29T00:07:11.909Z,1008.46
2017-04-29T00:08:12.509Z,1008.43
2017-04-29T00:09:13.108Z,1008.48
2017-04-29T00:10:13.716Z,1008.47
2017-04-29T00:11:14.305Z,1008.47
2017-04-29T00:12:14.907Z,1008.46
2017-04-29T00:13:15.498Z,1008.48
2017-04-29T00:14:16.099Z,1008.44
2017-04-29T00:15:16.692Z,1008.44
2017-04-29T00:16:17.285Z,1008.39
2017-04-29T00:17:17.893Z,1008.41
2017-04-29T00:18:18.502Z,1008.39
2017-04-29T00:19:19.115Z,1008.36
2017-04-29T00:20:19.718Z,1008.35
2017-04-29T00:21:20.324Z,1008.36
2017-04-29T00:22:20.923Z,1008.35
2017-04-29T00:23:21.517Z,1008.38
2017-04-29T00:24:22.126Z,1008.39
2017-04-29T00:25:22.733Z,1008.36
2017-04-29T00:26:23.373Z,1008.36
2017-04-29T00:27:23.970Z,1008.34
2017-04-29T00:28:24.566Z,1008.30
2017-04-29T00:29:25.155Z,1008.32
2017-04-29T00:30:25.760Z,1008.32
2017-04-29T00:31:26.501Z,1008.31
2017-04-29T00:32:27.093Z,1008.32
2017-04-29T00:33:27.684Z,1008.31
2017-04-29T00:34:28.283Z,1008.34
2017-04-29T00:35:28.870Z,1008.28
2017-04-29T00:36:29.461Z,1008.28
2017-04-29T00:37:30.061Z,1008.29
2017-04-29T00:38:30.663Z,1008.24
2017-04-29T00:39:31.267Z,1008.29
2017-04-29T00:40:31.873Z,1008.30
2017-04-29T00:41:32.478Z,1008.28
2017-04-29T00:42:33.072Z,1008.32
2017-04-29T00:43:33.664Z,1008.34
2017-04-29T00:44:34.257Z,1008.30
2017-04-29T00:45:34.864Z,1008.31
2017-04-29T00:46:35.522Z,1008.32
2017-04-29T00:47:36.113Z,1008.30
2017-04-29T00:48:36.701Z,1008.30
2017-04-29T00:49:37.306Z,1008.29
2017-04-29T00:50:37.893Z,1008.28
2017-04-29T00:51:38.489Z,1008.28
2017-04-29T00:52:39.090Z,1008.29
2017-04-29T00:53:39.694Z,1008.28
2017-04-29T00:54:40.283Z,1008.27
2017-04-29T00:55:40.885Z,1008.28
2017-04-29T00:56:41.477Z,1008.27
2017-04-29T00:57:42.085Z,1008.31
2017-04-29T00:58:42.689Z,1008.31
2017-04-29T00:59:43.295Z,1008.36
2017-04-29T01:00:43.897Z,1008.35
2017-04-29T01:01:44.550Z,1008.38
2017-04-29T01:02:45.139Z,1008.38
2017-04-29T01:03:45.733Z,1008.36
2017-04-29T01:04:46.340Z,1008.42
2017-04-29T01:05:46.942Z,1008.41
2017-04-29T01:06:47.549Z,1008.39
2017-04-29T01:07:48.158Z,1008.40
2017-04-29T01:08:48.761Z,1008.35
2017-04-29T01:09:49.361Z,1008.37
2017-04-29T01:10:49.951Z,1008.40
2017-04-29T01:11:50.544Z,1008.37
2017-04-29T01:12:51.145Z,1008.39
2017-04-29T01:13:51.737Z,1008.38
2017-04-29T01:14:52.333Z,1008.40
2017-04-29T01:15:52.936Z,1008.40
2017-04-29T01:16:53.530Z,1008.44
2017-04-29T01:17:54.120Z,1008.44
2017-04-29T01:18:54.722Z,1008.45
2017-04-29T01:19:55.313Z,1008.45
2017-04-29T01:20:55.915Z,1008.46
2017-04-29T01:21:56.510Z,1008.50
2017-04-29T01:22:57.111Z,1008.48
2017-04-29T01:23:57.717Z,1008.48
2017-04-29T01:24:58.323Z,1008.48
2017-04-29T01:25:58.998Z,1008.49
2017-04-29T01:26:59.555Z,1008.50
2017-04-29T01:28:00.160Z,1008.50
2017-04-29T01:29:00.765Z,1008.45
2017-04-29T01:30:01.365Z,1008.42
2017-04-29T01:31:01.967Z,1008.41
2017-04-29T01:32:02.557Z,1008.42
2017-04-29T01:33:03.156Z,1008.41
2017-04-29T01:34:03.764Z,1008.43
2017-04-29T01:35:04.365Z,1008.41
2017-04-29T01:36:04.965Z,1008.39
2017-04-29T01:37:05.615Z,1008.35
2017-04-29T01:38:06.220Z,1008.35
2017-04-29T01:39:06.827Z,1008.35
2017-04-29T01:40:07.431Z,1008.35
2017-04-29T01:41:08.021Z,1008.36
2017-04-29T01:42:08.674Z,1008.41
2017-04-29T01:43:09.279Z,1008.39
2017-04-29T01:44:09.882Z,1008.41
2017-04-29T01:45:10.484Z,1008.44
2017-04-29T01:46:11.084Z,1008.48
2017-04-29T01:47:11.725Z,1008.48
2017-04-29T01:48:12.316Z,1008.44
2017-04-29T01:49:12.921Z,1008.48
2017-04-29T01:50:13.525Z,1008.44
2017-04-29T01:51:14.130Z,1008.48
2017-04-29T01:52:14.715Z,1008.46
2017-04-29T01:53:15.306Z,1008.51
2017-04-29T01:54:15.907Z,1008.50
2017-04-29T01:55:16.506Z,1008.53
2017-04-29T01:56:17.101Z,1008.53
2017-04-29T01:57:17.708Z,1008.53
2017-04-29T01:58:18.316Z,1008.52
2017-04-29T01:59:18.921Z,1008.53
2017-04-29T02:00:19.514Z,1008.47
2017-04-29T02:01:20.120Z,1008.54
2017-04-29T02:02:20.707Z,1008.55
2017-04-29T02:03:21.308Z,1008.51
2017-04-29T02:04:21.899Z,1008.48
2017-04-29T02:05:22.486Z,1008.49
2017-04-29T02:06:23.081Z,1008.53
2017-04-29T02:07:23.685Z,1008.51
2017-04-29T02:08:24.275Z,1008.53
2017-04-29T02:09:24.873Z,1008.52
2017-04-29T02:10:25.462Z,1008.50
2017-04-29T02:11:26.054Z,1008.51
2017-04-29T02:12:26.704Z,1008.56
2017-04-29T02:13:27.294Z,1008.55
2017-04-29T02:14:27.894Z,1008.49
2017-04-29T02:15:28.485Z,1008.55
2017-04-29T02:16:29.094Z,1008.57
2017-04-29T02:17:29.681Z,1008.58
2017-04-29T02:18:30.277Z,1008.54
2017-04-29T02:19:30.867Z,1008.61
2017-04-29T02:20:31.473Z,1008.57
2017-04-29T02:21:32.078Z,1008.53
2017-04-29T02:22:32.718Z,1008.54
2017-04-29T02:23:33.306Z,1008.54
2017-04-29T02:24:33.910Z,1008.54
2017-04-29T02:25:34.503Z,1008.56
2017-04-29T02:26:35.100Z,1008.50
2017-04-29T02:27:35.701Z,1008.51
2017-04-29T02:28:36.293Z,1008.48
2017-04-29T02:29:36.897Z,1008.53
2017-04-29T02:30:37.488Z,1008.50
2017-04-29T02:31:38.094Z,1008.52
2017-04-29T02:32:38.742Z,1008.50
2017-04-29T02:33:39.348Z,1008.53
2017-04-29T02:34:39.955Z,1008.49
2017-04-29T02:35:40.559Z,1008.50
2017-04-29T02:36:41.162Z,1008.50
2017-04-29T02:37:41.763Z,1008.56
2017-04-29T02:38:42.361Z,1008.55
2017-04-29T02:39:42.967Z,1008.55
2017-04-29T02:40:43.557Z,1008.57
2017-04-29T02:41:44.150Z,1008.57
2017-04-29T02:42:44.751Z,1008.54
2017-04-29T02:43:45.341Z,1008.62
2017-04-29T02:44:45.941Z,1008.60
2017-04-29T02:45:46.538Z,1008.61
2017-04-29T02:46:47.143Z,1008.59
2017-04-29T02:47:47.732Z,1008.62
2017-04-29T02:48:48.321Z,1008.59
2017-04-29T02:49:48.921Z,1008.61
2017-04-29T02:50:49.512Z,1008.65
2017-04-29T02:51:50.117Z,1008.61
2017-04-29T02:52:50.756Z,1008.63
2017-04-29T02:53:51.353Z,1008.63
2017-04-29T02:54:51.939Z,1008.65
2017-04-29T02:55:52.541Z,1008.65
2017-04-29T02:56:53.144Z,1008.66
2017-04-29T02:57:53.793Z,1008.68
2017-04-29T02:58:54.395Z,1008.69
2017-04-29T02:59:54.983Z,1008.67
2017-04-29T03:00:55.588Z,1008.67
2017-04-29T03:01:56.175Z,1008.68
2017-04-29T03:02:56.765Z,1008.71
2017-04-29T03:03:57.365Z,1008.71
2017-04-29T03:04:57.966Z,1008.65
2017-04-29T03:05:58.567Z,1008.66
2017-04-29T03:06:59.159Z,1008.67
2017-04-29T03:07:59.799Z,1008.72
2017-04-29T03:09:00.406Z,1008.75
2017-04-29T03:10:01.011Z,1008.72
2017-04-29T03:11:01.618Z,1008.74
2017-04-29T03:12:02.215Z,1008.78
2017-04-29T03:13:02.817Z,1008.76
2017-04-29T03:14:03.424Z,1008.79
2017-04-29T03:15:04.029Z,1008.82
2017-04-29T03:16:04.628Z,1008.81
2017-04-29T03:17:05.221Z,1008.80
2017-04-29T03:18:05.817Z,1008.81
2017-04-29T03:19:06.421Z,1008.80
2017-04-29T03:20:07.031Z,1008.85
2017-04-29T03:21:07.618Z,1008.78
2017-04-29T03:22:08.219Z,1008.85
2017-04-29T03:23:08.867Z,1008.85
2017-04-29T03:24:09.468Z,1008.82
2017-04-29T03:25:10.069Z,1008.84
2017-04-29T03:26:10.671Z,1008.84
2017-04-29T03:27:11.262Z,1008.84
2017-04-29T03:28:11.971Z,1008.82
2017-04-29T03:29:12.574Z,1008.83
2017-04-29T03:30:13.179Z,1008.83
2017-04-29T03:31:13.776Z,1008.85
2017-04-29T03:32:14.381Z,1008.85
2017-04-29T03:33:14.973Z,1008.87
2017-04-29T03:34:15.565Z,1008.84
2017-04-29T03:35:16.161Z,1008.86
2017-04-29T03:36:16.767Z,1008.85
2017-04-29T03:37:17.356Z,1008.86
2017-04-29T03:38:17.949Z,1008.83
2017-04-29T03:39:18.550Z,1008.86
2017-04-29T03:40:19.138Z,1008.85
2017-04-29T03:41:19.741Z,1008.85
2017-04-29T03:42:20.357Z,1008.91
2017-04-29T03:43:20.983Z,1008.93
2017-04-29T03:44:21.587Z,1008.95
2017-04-29T03:45:22.182Z,1008.92
2017-04-29T03:46:22.790Z,1008.92
2017-04-29T03:47:23.384Z,1008.94
2017-04-29T03:48:23.986Z,1008.93
2017-04-29T03:49:24.590Z,1008.96
2017-04-29T03:50:25.188Z,1008.97
2017-04-29T03:51:25.781Z,1008.95
2017-04-29T03:52:26.392Z,1008.94
2017-04-29T03:53:27.025Z,1008.94
2017-04-29T03:54:27.629Z,1008.94
2017-04-29T03:55:28.218Z,1008.94
2017-04-29T03:56:28.819Z,1008.94
2017-04-29T03:57:29.421Z,1008.91
2017-04-29T03:58:30.013Z,1008.92
2017-04-29T03:59:30.621Z,1008.93
2017-04-29T04:00:31.227Z,1008.91
2017-04-29T04:01:31.833Z,1008.91
2017-04-29T04:02:32.442Z,1008.95
2017-04-29T04:03:33.047Z,1008.95
2017-04-29T04:04:33.651Z,1008.96
2017-04-29T04:05:34.259Z,1008.92
2017-04-29T04:06:34.854Z,1008.98
2017-04-29T04:07:35.451Z,1008.97
2017-04-29T04:08:36.059Z,1008.97
2017-04-29T04:09:36.649Z,1009.02
2017-04-29T04:10:37.243Z,1009.00
2017-04-29T04:11:37.853Z,1009.02
2017-04-29T04:12:38.451Z,1009.04
2017-04-29T04:13:39.055Z,1009.03
2017-04-29T04:14:39.662Z,1008.99
2017-04-29T04:15:40.266Z,1009.00
2017-04-29T04:16:40.872Z,1008.99
2017-04-29T04:17:41.480Z,1008.96
2017-04-29T04:18:42.073Z,1008.96
2017-04-29T04:19:42.680Z,1008.98
2017-04-29T04:20:43.285Z,1008.98
2017-04-29T04:21:43.888Z,1008.99
2017-04-29T04:22:44.487Z,1008.97
2017-04-29T04:23:45.146Z,1008.94
2017-04-29T04:24:45.740Z,1008.94
2017-04-29T04:25:46.333Z,1008.95
2017-04-29T04:26:46.937Z,1008.96
2017-04-29T04:27:47.534Z,1008.99
2017-04-29T04:28:48.196Z,1008.97
2017-04-29T04:29:48.798Z,1008.94
2017-04-29T04:30:49.408Z,1008.97
2017-04-29T04:31:50.001Z,1008.94
2017-04-29T04:32:50.601Z,1008.96
2017-04-29T04:33:51.209Z,1008.95
2017-04-29T04:34:51.803Z,1008.92
2017-04-29T04:35:52.412Z,1008.92
2017-04-29T04:36:53.023Z,1008.91
2017-04-29T04:37:53.621Z,1008.97
2017-04-29T04:38:54.230Z,1008.91
2017-04-29T04:39:54.876Z,1008.91
2017-04-29T04:40:55.445Z,1008.89
2017-04-29T04:41:56.044Z,1008.91
2017-04-29T04:42:56.641Z,1008.93
2017-04-29T04:43:57.288Z,1008.90
2017-04-29T04:44:57.893Z,1008.87
2017-04-29T04:45:58.505Z,1008.87
2017-04-29T04:46:59.090Z,1008.86
2017-04-29T04:47:59.685Z,1008.87
2017-04-29T04:49:00.290Z,1008.90
2017-04-29T04:50:00.892Z,1008.88
2017-04-29T04:51:01.490Z,1008.87
2017-04-29T04:52:02.086Z,1008.83
2017-04-29T04:53:02.683Z,1008.87
2017-04-29T04:54:03.343Z,1008.92
2017-04-29T04:55:03.946Z,1008.86
2017-04-29T04:56:04.540Z,1008.86
2017-04-29T04:57:05.145Z,1008.84
2017-04-29T04:58:05.753Z,1008.83
2017-04-29T04:59:06.360Z,1008.86
2017-04-29T05:00:06.972Z,1008.88
2017-04-29T05:01:07.583Z,1008.89
2017-04-29T05:02:08.185Z,1008.87
2017-04-29T05:03:08.779Z,1008.83
2017-04-29T05:04:09.434Z,1008.91
2017-04-29T05:05:10.032Z,1008.84
2017-04-29T05:06:10.645Z,1008.90
2017-04-29T05:07:11.257Z,1008.88
2017-04-29T05:08:11.872Z,1008.92
2017-04-29T05:09:12.484Z,1008.87
2017-04-29T05:10:13.087Z,1008.89
2017-04-29T05:11:13.699Z,1008.89
2017-04-29T05:12:14.308Z,1008.85
2017-04-29T05:13:14.903Z,1008.89
2017-04-29T05:14:15.515Z,1008.85
2017-04-29T05:15:16.121Z,1008.87
2017-04-29T05:16:16.735Z,1008.86
2017-04-29T05:17:17.336Z,1008.86
2017-04-29T05:18:17.950Z,1008.87
2017-04-29T05:19:18.566Z,1008.90
2017-04-29T05:20:19.189Z,1008.91
2017-04-29T05:21:19.811Z,1008.88
2017-04-29T05:22:20.422Z,1008.91
2017-04-29T05:23:21.028Z,1008.91
2017-04-29T05:24:21.689Z,1008.94
2017-04-29T05:25:22.292Z,1008.92
2017-04-29T05:26:22.902Z,1008.97
2017-04-29T05:27:23.505Z,1008.96
2017-04-29T05:28:24.120Z,1008.98
2017-04-29T05:29:24.726Z,1008.97
2017-04-29T05:30:25.346Z,1008.97
2017-04-29T05:31:25.961Z,1008.97
2017-04-29T05:32:26.566Z,1008.97
2017-04-29T05:33:27.172Z,1008.99
2017-04-29T05:34:27.778Z,1008.98
2017-04-29T05:35:28.393Z,1009.01
2017-04-29T05:36:29.009Z,1008.99
2017-04-29T05:37:29.636Z,1009.00
2017-04-29T05:38:30.263Z,1009.02
2017-04-29T05:39:30.936Z,1008.99
2017-04-29T05:40:31.558Z,1008.99
2017-04-29T05:41:32.169Z,1009.02
2017-04-29T05:42:32.790Z,1009.02
2017-04-29T05:43:33.407Z,1009.00
2017-04-29T05:44:34.078Z,1009.06
2017-04-29T05:45:34.706Z,1009.07
2017-04-29T05:46:35.328Z,1009.09
2017-04-29T05:47:35.942Z,1009.10
2017-04-29T05:48:36.564Z,1009.14
2017-04-29T05:49:37.187Z,1009.11
2017-04-29T05:50:37.810Z,1009.09
2017-04-29T05:51:38.432Z,1009.11
2017-04-29T05:52:39.035Z,1009.15
2017-04-29T05:53:39.646Z,1009.14
2017-04-29T05:54:40.262Z,1009.14
2017-04-29T05:55:40.872Z,1009.11
2017-04-29T05:56:41.493Z,1009.11
2017-04-29T05:57:42.118Z,1009.14
2017-04-29T05:58:42.742Z,1009.11
2017-04-29T05:59:43.354Z,1009.11
2017-04-29T06:00:43.973Z,1009.11
2017-04-29T06:01:44.582Z,1009.14
2017-04-29T06:02:45.195Z,1009.13
2017-04-29T06:03:45.818Z,1009.10
2017-04-29T06:04:46.430Z,1009.08
2017-04-29T06:05:47.052Z,1009.09
2017-04-29T06:06:47.681Z,1009.12
2017-04-29T06:07:48.304Z,1009.11
2017-04-29T06:08:48.929Z,1009.10
2017-04-29T06:09:49.559Z,1009.10
2017-04-29T06:10:50.178Z,1009.12
2017-04-29T06:11:50.804Z,1009.14
2017-04-29T06:12:51.424Z,1009.15
2017-04-29T06:13:52.049Z,1009.14
2017-04-29T06:14:52.767Z,1009.20
2017-04-29T06:15:53.396Z,1009.20
2017-04-29T06:16:54.023Z,1009.19
2017-04-29T06:17:54.642Z,1009.19
2017-04-29T06:18:55.275Z,1009.21
2017-04-29T06:19:55.898Z,1009.23
2017-04-29T06:20:56.527Z,1009.21
2017-04-29T06:21:57.175Z,1009.21
2017-04-29T06:22:57.805Z,1009.24
2017-04-29T06:23:58.438Z,1009.21
2017-04-29T06:24:59.120Z,1009.20
2017-04-29T06:25:59.747Z,1009.20
2017-04-29T06:27:00.374Z,1009.22
2017-04-29T06:28:01.002Z,1009.23
2017-04-29T06:29:01.623Z,1009.22
2017-04-29T06:30:02.308Z,1009.23
2017-04-29T06:31:02.941Z,1009.23
2017-04-29T06:32:03.562Z,1009.23
2017-04-29T06:33:04.180Z,1009.21
2017-04-29T06:34:04.797Z,1009.21
2017-04-29T06:35:05.425Z,1009.23
2017-04-29T06:36:06.043Z,1009.25
2017-04-29T06:37:06.661Z,1009.25
2017-04-29T06:38:07.284Z,1009.27
2017-04-29T06:39:07.907Z,1009.27
2017-04-29T06:40:08.542Z,1009.25
2017-04-29T06:41:09.169Z,1009.24
2017-04-29T06:42:09.792Z,1009.26
2017-04-29T06:43:10.420Z,1009.23
2017-04-29T06:44:11.040Z,1009.28
2017-04-29T06:45:11.676Z,1009.25
2017-04-29T06:46:12.312Z,1009.26
2017-04-29T06:47:12.936Z,1009.29
2017-04-29T06:48:13.562Z,1009.29
2017-04-29T06:49:14.193Z,1009.31
2017-04-29T06:50:14.911Z,1009.32
2017-04-29T06:51:15.531Z,1009.34
2017-04-29T06:52:16.157Z,1009.30
2017-04-29T06:53:16.786Z,1009.32
2017-04-29T06:54:17.407Z,1009.36
2017-04-29T06:55:18.091Z,1009.35
2017-04-29T06:56:18.726Z,1009.35
2017-04-29T06:57:19.359Z,1009.37
2017-04-29T06:58:19.988Z,1009.35
2017-04-29T06:59:20.609Z,1009.36
2017-04-29T07:00:21.227Z,1009.34
2017-04-29T07:01:21.860Z,1009.37
2017-04-29T07:02:22.479Z,1009.37
2017-04-29T07:03:23.107Z,1009.40
2017-04-29T07:04:23.733Z,1009.35
2017-04-29T07:05:24.360Z,1009.38
2017-04-29T07:06:24.982Z,1009.40
2017-04-29T07:07:25.613Z,1009.41
2017-04-29T07:08:26.235Z,1009.36
2017-04-29T07:09:26.864Z,1009.37
2017-04-29T07:10:27.483Z,1009.41
2017-04-29T07:11:28.114Z,1009.43
2017-04-29T07:12:28.743Z,1009.41
2017-04-29T07:13:29.376Z,1009.42
2017-04-29T07:14:30.011Z,1009.39
2017-04-29T07:15:30.671Z,1009.46
2017-04-29T07:16:31.300Z,1009.46
2017-04-29T07:17:31.923Z,1009.45
2017-04-29T07:18:32.537Z,1009.44
2017-04-29T07:19:33.154Z,1009.47
2017-04-29T07:20:33.769Z,1009.44
2017-04-29T07:21:34.398Z,1009.42
2017-04-29T07:22:35.023Z,1009.40
2017-04-29T07:23:35.647Z,1009.46
2017-04-29T07:24:36.269Z,1009.42
2017-04-29T07:25:36.884Z,1009.41
2017-04-29T07:26:37.496Z,1009.42
2017-04-29T07:27:38.117Z,1009.46
2017-04-29T07:28:38.727Z,1009.46
2017-04-29T07:29:39.351Z,1009.46
2017-04-29T07:30:39.963Z,1009.44
2017-04-29T07:31:40.589Z,1009.48
2017-04-29T07:32:41.215Z,1009.44
2017-04-29T07:33:41.840Z,1009.43
2017-04-29T07:34:42.463Z,1009.48
2017-04-29T07:35:43.081Z,1009.41
2017-04-29T07:36:43.703Z,1009.39
2017-04-29T07:37:44.331Z,1009.41
2017-04-29T07:38:44.956Z,1009.42
2017-04-29T07:39:45.567Z,1009.36
2017-04-29T07:40:46.238Z,1009.36
2017-04-29T07:41:46.861Z,1009.40
2017-04-29T07:42:47.481Z,1009.38
2017-04-29T07:43:48.104Z,1009.40
2017-04-29T07:44:48.731Z,1009.41
2017-04-29T07:45:49.353Z,1009.35
2017-04-29T07:46:49.974Z,1009.39
2017-04-29T07:47:50.604Z,1009.37
2017-04-29T07:48:51.226Z,1009.37
2017-04-29T07:49:51.840Z,1009.41
2017-04-29T07:50:52.469Z,1009.43
2017-04-29T07:51:53.092Z,1009.39
2017-04-29T07:52:53.722Z,1009.39
2017-04-29T07:53:54.352Z,1009.41
2017-04-29T07:54:54.987Z,1009.39
2017-04-29T07:55:55.663Z,1009.37
2017-04-29T07:56:56.282Z,1009.40
2017-04-29T07:57:56.897Z,1009.39
2017-04-29T07:58:57.527Z,1009.38
2017-04-29T07:59:58.157Z,1009.36
2017-04-29T08:00:58.770Z,1009.40
2017-04-29T08:01:59.382Z,1009.37
2017-04-29T08:03:00.005Z,1009.39
2017-04-29T08:04:00.619Z,1009.36
2017-04-29T08:05:01.262Z,1009.35
2017-04-29T08:06:01.920Z,1009.37
2017-04-29T08:07:02.545Z,1009.37
2017-04-29T08:08:03.164Z,1009.38
2017-04-29T08:09:03.791Z,1009.38
2017-04-29T08:10:04.421Z,1009.40
2017-04-29T08:11:05.083Z,1009.36
2017-04-29T08:12:05.716Z,1009.43
2017-04-29T08:13:06.338Z,1009.43
2017-04-29T08:14:06.954Z,1009.44
2017-04-29T08:15:07.573Z,1009.43
2017-04-29T08:16:08.238Z,1009.47
2017-04-29T08:17:08.852Z,1009.43
2017-04-29T08:18:09.475Z,1009.44
2017-04-29T08:19:10.103Z,1009.39
2017-04-29T08:20:10.729Z,1009.39
2017-04-29T08:21:11.349Z,1009.42
2017-04-29T08:22:11.974Z,1009.37
2017-04-29T08:23:12.588Z,1009.40
2017-04-29T08:24:13.213Z,1009.39
2017-04-29T08:25:13.823Z,1009.43
2017-04-29T08:26:14.497Z,1009.41
2017-04-29T08:27:15.127Z,1009.37
2017-04-29T08:28:15.753Z,1009.38
2017-04-29T08:29:16.373Z,1009.38
2017-04-29T08:30:17.003Z,1009.40
2017-04-29T08:31:17.633Z,1009.43
2017-04-29T08:32:18.263Z,1009.40
2017-04-29T08:33:18.876Z,1009.38
2017-04-29T08:34:19.503Z,1009.43
2017-04-29T08:35:20.128Z,1009.43
2017-04-29T08:36:20.747Z,1009.44
2017-04-29T08:37:21.369Z,1009.43
2017-04-29T08:38:21.994Z,1009.41
2017-04-29T08:39:22.620Z,1009.43
2017-04-29T08:40:23.233Z,1009.43
2017-04-29T08:41:23.846Z,1009.46
2017-04-29T08:42:24.473Z,1009.45
2017-04-29T08:43:25.103Z,1009.46
2017-04-29T08:44:25.712Z,1009.49
2017-04-29T08:45:26.323Z,1009.43
2017-04-29T08:46:26.998Z,1009.46
2017-04-29T08:47:27.614Z,1009.43
2017-04-29T08:48:28.242Z,1009.44
2017-04-29T08:49:28.865Z,1009.45
2017-04-29T08:50:29.492Z,1009.42
2017-04-29T08:51:30.104Z,1009.44
2017-04-29T08:52:30.733Z,1009.46
2017-04-29T08:53:31.360Z,1009.45
2017-04-29T08:54:31.992Z,1009.45
2017-04-29T08:55:32.606Z,1009.52
2017-04-29T08:56:33.230Z,1009.53
2017-04-29T08:57:33.844Z,1009.51
2017-04-29T08:58:34.453Z,1009.50
2017-04-29T08:59:35.077Z,1009.49
2017-04-29T09:00:35.685Z,1009.48
2017-04-29T09:01:36.446Z,1009.50
2017-04-29T09:02:37.063Z,1009.53
2017-04-29T09:03:37.671Z,1009.53
2017-04-29T09:04:38.292Z,1009.53
2017-04-29T09:05:38.912Z,1009.51
2017-04-29T09:06:39.534Z,1009.50
2017-04-29T09:07:40.159Z,1009.46
2017-04-29T09:08:40.778Z,1009.46
2017-04-29T09:09:41.398Z,1009.49
2017-04-29T09:10:42.013Z,1009.51
2017-04-29T09:11:42.635Z,1009.44
2017-04-29T09:12:43.263Z,1009.49
2017-04-29T09:13:43.904Z,1009.42
2017-04-29T09:14:44.513Z,1009.41
2017-04-29T09:15:45.144Z,1009.46
2017-04-29T09:16:45.810Z,1009.46
2017-04-29T09:17:46.437Z,1009.47
2017-04-29T09:18:47.055Z,1009.42
2017-04-29T09:19:47.661Z,1009.41
2017-04-29T09:20:48.284Z,1009.43
2017-04-29T09:21:48.962Z,1009.43
2017-04-29T09:22:49.591Z,1009.49
2017-04-29T09:23:50.213Z,1009.49
2017-04-29T09:24:50.834Z,1009.49
2017-04-29T09:25:51.440Z,1009.53
2017-04-29T09:26:52.111Z,1009.53
2017-04-29T09:27:52.722Z,1009.48
2017-04-29T09:28:53.347Z,1009.50
2017-04-29T09:29:53.957Z,1009.54
2017-04-29T09:30:54.569Z,1009.53
2017-04-29T09:31:55.196Z,1009.52
2017-04-29T09:32:55.820Z,1009.52
2017-04-29T09:33:56.447Z,1009.50
2017-04-29T09:34:57.067Z,1009.52
2017-04-29T09:35:57.680Z,1009.48
2017-04-29T09:36:58.305Z,1009.48
2017-04-29T09:37:58.927Z,1009.49
2017-04-29T09:38:59.549Z,1009.50
2017-04-29T09:40:00.176Z,1009.55
2017-04-29T09:41:00.802Z,1009.52
2017-04-29T09:42:01.486Z,1009.56
2017-04-29T09:43:02.109Z,1009.55
2017-04-29T09:44:02.736Z,1009.54
2017-04-29T09:45:03.365Z,1009.55
2017-04-29T09:46:03.994Z,1009.54
2017-04-29T09:47:04.605Z,1009.56
2017-04-29T09:48:05.218Z,1009.53
2017-04-29T09:49:05.831Z,1009.49
2017-04-29T09:50:06.454Z,1009.54
2017-04-29T09:51:07.072Z,1009.50
2017-04-29T09:52:07.693Z,1009.50
2017-04-29T09:53:08.314Z,1009.50
2017-04-29T09:54:08.947Z,1009.54
2017-04-29T09:55:09.569Z,1009.55
2017-04-29T09:56:10.199Z,1009.51
2017-04-29T09:57:10.881Z,1009.51
2017-04-29T09:58:11.507Z,1009.54
2017-04-29T09:59:12.133Z,1009.52
2017-04-29T10:00:12.745Z,1009.52
2017-04-29T10:01:13.374Z,1009.52
2017-04-29T10:02:13.996Z,1009.55
2017-04-29T10:03:14.615Z,1009.52
2017-04-29T10:04:15.236Z,1009.56
2017-04-29T10:05:15.856Z,1009.53
2017-04-29T10:06:16.467Z,1009.53
2017-04-29T10:07:17.075Z,1009.53
2017-04-29T10:08:17.732Z,1009.53
2017-04-29T10:09:18.391Z,1009.51
2017-04-29T10:10:19.025Z,1009.58
2017-04-29T10:11:19.666Z,1009.51
2017-04-29T10:12:20.316Z,1009.51
2017-04-29T10:13:20.967Z,1009.54
2017-04-29T10:14:21.611Z,1009.54
2017-04-29T10:15:22.228Z,1009.57
2017-04-29T10:16:22.846Z,1009.58
2017-04-29T10:17:23.516Z,1009.58
2017-04-29T10:18:24.134Z,1009.60
2017-04-29T10:19:24.751Z,1009.61
2017-04-29T10:20:25.360Z,1009.56
2017-04-29T10:21:25.976Z,1009.59
2017-04-29T10:22:26.580Z,1009.58
2017-04-29T10:23:27.201Z,1009.60
2017-04-29T10:24:27.810Z,1009.54
2017-04-29T10:25:28.424Z,1009.50
2017-04-29T10:26:29.040Z,1009.53
2017-04-29T10:27:29.662Z,1009.49
2017-04-29T10:28:30.296Z,1009.48
2017-04-29T10:29:30.903Z,1009.48
2017-04-29T10:30:31.514Z,1009.48
2017-04-29T10:31:32.139Z,1009.45
2017-04-29T10:32:32.765Z,1009.47
2017-04-29T10:33:33.382Z,1009.46
2017-04-29T10:34:34.004Z,1009.45
2017-04-29T10:35:34.614Z,1009.48
2017-04-29T10:36:35.223Z,1009.46
2017-04-29T10:37:35.843Z,1009.45
2017-04-29T10:38:36.467Z,1009.48
2017-04-29T10:39:37.095Z,1009.46
2017-04-29T10:40:37.720Z,1009.46
2017-04-29T10:41:38.334Z,1009.44
2017-04-29T10:42:38.994Z,1009.46
2017-04-29T10:43:39.615Z,1009.44
2017-04-29T10:44:40.232Z,1009.40
2017-04-29T10:45:40.857Z,1009.37
2017-04-29T10:46:41.479Z,1009.42
2017-04-29T10:47:42.101Z,1009.44
2017-04-29T10:48:42.711Z,1009.43
2017-04-29T10:49:43.339Z,1009.44
2017-04-29T10:50:43.969Z,1009.34
2017-04-29T10:51:44.598Z,1009.39
2017-04-29T10:52:45.260Z,1009.38
2017-04-29T10:53:45.887Z,1009.39
2017-04-29T10:54:46.529Z,1009.35
2017-04-29T10:55:47.202Z,1009.31
2017-04-29T10:56:47.851Z,1009.33
2017-04-29T10:57:48.480Z,1009.35
2017-04-29T10:58:49.087Z,1009.32
2017-04-29T10:59:49.707Z,1009.34
2017-04-29T11:00:50.323Z,1009.35
2017-04-29T11:01:50.930Z,1009.33
2017-04-29T11:02:51.537Z,1009.36
2017-04-29T11:03:52.161Z,1009.37
2017-04-29T11:04:52.770Z,1009.33
2017-04-29T11:05:53.390Z,1009.32
2017-04-29T11:06:54.007Z,1009.30
2017-04-29T11:07:54.668Z,1009.31
2017-04-29T11:08:55.286Z,1009.32
2017-04-29T11:09:55.916Z,1009.31
2017-04-29T11:10:56.526Z,1009.33
2017-04-29T11:11:57.141Z,1009.29
2017-04-29T11:12:57.757Z,1009.27
2017-04-29T11:13:58.396Z,1009.28
2017-04-29T11:14:59.002Z,1009.27
2017-04-29T11:15:59.614Z,1009.22
2017-04-29T11:17:00.236Z,1009.25
2017-04-29T11:18:00.896Z,1009.23
2017-04-29T11:19:01.504Z,1009.22
2017-04-29T11:20:02.120Z,1009.22
2017-04-29T11:21:02.736Z,1009.19
2017-04-29T11:22:03.361Z,1009.18
2017-04-29T11:23:03.978Z,1009.13
2017-04-29T11:24:04.607Z,1009.09
2017-04-29T11:25:05.237Z,1009.11
2017-04-29T11:26:05.854Z,1009.06
2017-04-29T11:27:06.466Z,1009.05
2017-04-29T11:28:07.094Z,1009.05
2017-04-29T11:29:07.712Z,1009.05
2017-04-29T11:30:08.339Z,1009.07
2017-04-29T11:31:08.957Z,1009.02
2017-04-29T11:32:09.589Z,1009.06
2017-04-29T11:33:10.204Z,1009.08
2017-04-29T11:34:10.831Z,1009.08
2017-04-29T11:35:11.461Z,1009.10
2017-04-29T11:36:12.081Z,1009.04
2017-04-29T11:37:12.707Z,1009.06
2017-04-29T11:38:13.324Z,1009.02
2017-04-29T11:39:13.943Z,1009.06
2017-04-29T11:40:14.572Z,1009.07
2017-04-29T11:41:15.190Z,1009.04
2017-04-29T11:42:15.817Z,1009.01
2017-04-29T11:43:16.439Z,1009.03
2017-04-29T11:44:17.066Z,1009.01
2017-04-29T11:45:17.690Z,1009.02
2017-04-29T11:46:18.306Z,1008.98
2017-04-29T11:47:18.931Z,1009.00
2017-04-29T11:48:19.607Z,1008.98
2017-04-29T11:49:20.233Z,1008.95
2017-04-29T11:50:20.860Z,1009.00
2017-04-29T11:51:21.491Z,1008.93
2017-04-29T11:52:22.118Z,1008.92
2017-04-29T11:53:22.783Z,1008.97
2017-04-29T11:54:23.401Z,1008.97
2017-04-29T11:55:24.027Z,1008.96
2017-04-29T11:56:24.645Z,1008.99
2017-04-29T11:57:25.257Z,1009.01
2017-04-29T11:58:25.923Z,1009.03
2017-04-29T11:59:26.554Z,1009.00
2017-04-29T12:00:27.164Z,1008.98
2017-04-29T12:01:27.786Z,1009.00
2017-04-29T12:02:28.419Z,1009.00
2017-04-29T12:03:29.043Z,1009.03
2017-04-29T12:04:29.678Z,1009.00
2017-04-29T12:05:30.304Z,1008.98
2017-04-29T12:06:30.925Z,1008.97
2017-04-29T12:07:31.547Z,1008.98
2017-04-29T12:08:32.172Z,1008.99
2017-04-29T12:09:32.786Z,1008.91
2017-04-29T12:10:33.397Z,1008.92
2017-04-29T12:11:34.019Z,1008.94
2017-04-29T12:12:34.643Z,1008.90
2017-04-29T12:13:35.317Z,1008.90